Datum Regen Temp(min) Temp(max) Feuchte(min) Feuchte(max) Bemerkungen Änderung Summe
04.07.08 14,3 18,3 68 89 Völker stark 0,4 0,4
05.07.08 12,2 22,7 48 89 -0,1 0,3
06.07.08 16,6 21,8 47 85 -0,3 0
07.07.08 15,8 19,2 48 75 -0,4 -0,4
08.07.08 8 13,7 16,4 75 89 Tracht? 0,2 -0,2
09.07.08 2 12,9 17,9 65 89 -0,7 -0,9
10.07.08 3 15,5 22 69 90 0,1 -0,8
11.07.08 6 15,5 17,7 79 90 -0,4 -1,2
12.07.08 8 14 17,3 65 91 -0,4 -1,6
13.07.08 10,4 17,8 59 90 -0,5 -2,1
14.07.08 9,8 19,3 56 88 -0,5 -2,6
15.07.08 12,2 23 56 87 Abernten 0 -2,6
16.07.08 7 14 18 71 88 -0,2 -2,8
17.07.08 12,5 15,8 75 88 -0,3 -3,1
18.07.08 4 12,9 15,9 82 91 -0,1 -3,2
19.07.08 10 14,6 18,7 80 92 -0,3 -3,5
20.07.08 9 12,6 14,6 88 93 Winterfutter -0,3 -3,8
21.07.08 4 10,6 12,6 87 94 kommt in die -0,1 -3,9
22.07.08 1 12,2 15,7 79 93 Bienenvölker -0,3 -4,2
23.07.08 11,8 18,9 73 93 -0,8 -5
24.07.08 10,7 24,8 43 92 -0,5 -5,5
25.07.08 15,1 27,2 52 86 -0,4 -5,9